| time (UTC) | temp F | wind direction | speed MPH | gust MPH | rain 1hr in | rain 24hr in | rain mn in | humidity % | barometer mb |
| 20260509191905 | 52 | 23 | 2.0 | 7.0 | 0.00 | 0.00 | 0.00 | 52 | 1024.6 |
| 20260509191404 | 52 | 309 | 1.0 | 6.0 | 0.00 | 0.00 | 0.00 | 52 | 1024.6 |
| 20260509190904 | 52 | 309 | 1.0 | 7.0 | 0.00 | 0.00 | 0.00 | 50 | 1024.6 |
| 20260509190404 | 53 | 292 | 1.0 | 5.0 | 0.00 | 0.00 | 0.00 | 50 | 1024.6 |
| 20260509185905 | 53 | 288 | 1.0 | 3.0 | 0.00 | 0.00 | 0.00 | 51 | 1024.4 |
| 20260509185405 | 53 | 287 | 2.0 | 8.0 | 0.00 | 0.00 | 0.00 | 49 | 1024.4 |
| 20260509184403 | 54 | 6 | 2.0 | 8.0 | 0.00 | 0.00 | 0.00 | 48 | 1024.1 |
| 20260509183904 | 54 | 325 | 2.0 | 5.0 | 0.00 | 0.00 | 0.00 | 47 | 1024.1 |
| 20260509183404 | 54 | 348 | 2.0 | 6.0 | 0.00 | 0.00 | 0.00 | 47 | 1024.1 |
| 20260509182904 | 55 | 345 | 1.0 | 6.0 | 0.00 | 0.00 | 0.00 | 47 | 1024.0 |
| 20260509182404 | 55 | 6 | 1.0 | 6.0 | 0.00 | 0.00 | 0.00 | 46 | 1023.9 |
| 20260509181905 | 55 | 24 | 1.0 | 3.0 | 0.00 | 0.00 | 0.00 | 45 | 1024.0 |
| 20260509181404 | 55 | 28 | 1.0 | 6.0 | 0.00 | 0.00 | 0.00 | 44 | 1024.0 |
| 20260509180905 | 55 | 342 | 2.0 | 8.0 | 0.00 | 0.00 | 0.00 | 45 | 1023.9 |
| 20260509180405 | 56 | 36 | 1.0 | 6.0 | 0.00 | 0.00 | 0.00 | 45 | 1023.8 |
| 20260509175405 | 56 | 5 | 3.0 | 7.0 | 0.00 | 0.00 | 0.00 | 42 | 1023.8 |
| 20260509174905 | 56 | 2 | 1.0 | 7.0 | 0.00 | 0.00 | 0.00 | 45 | 1023.7 |
| 20260509174406 | 56 | 0 | 3.0 | 6.0 | 0.00 | 0.00 | 0.00 | 43 | 1023.6 |
| 20260509173905 | 55 | 341 | 3.0 | 8.0 | 0.00 | 0.00 | 0.00 | 44 | 1023.6 |
| 20260509173404 | 55 | 27 | 5.0 | 8.0 | 0.00 | 0.00 | 0.00 | 43 | 1023.7 |
| 20260509172403 | 55 | 349 | 5.0 | 9.0 | 0.00 | 0.00 | 0.00 | 45 | 1023.6 |
| 20260509171406 | 53 | 47 | 2.0 | 9.0 | 0.00 | 0.00 | 0.00 | 49 | 1023.6 |
| 20260509170904 | 53 | 44 | 1.0 | 7.0 | 0.00 | 0.00 | 0.00 | 49 | 1023.6 |
| 20260509170404 | 53 | 26 | 2.0 | 8.0 | 0.00 | 0.00 | 0.00 | 49 | 1023.5 |
| 20260509165904 | 53 | 30 | 3.0 | 8.0 | 0.00 | 0.00 | 0.00 | 49 | 1023.5 |
| 20260509165404 | 53 | 15 | 4.0 | 9.0 | 0.00 | 0.00 | 0.00 | 48 | 1023.5 |
| 20260509164904 | 54 | 32 | 2.0 | 7.0 | 0.00 | 0.00 | 0.00 | 50 | 1023.6 |
| 20260509163905 | 54 | 14 | 3.0 | 6.0 | 0.00 | 0.00 | 0.00 | 48 | 1023.6 |
| 20260509163403 | 55 | 10 | 1.0 | 8.0 | 0.00 | 0.00 | 0.00 | 49 | 1023.6 |
| 20260509162906 | 55 | 8 | 2.0 | 8.0 | 0.00 | 0.00 | 0.00 | 47 | 1023.6 |
| 20260509162404 | 56 | 5 | 3.0 | 10.0 | 0.00 | 0.00 | 0.00 | 45 | 1023.6 |
| 20260509161904 | 58 | 19 | 6.0 | 12.0 | 0.00 | 0.00 | 0.00 | 44 | 1023.5 |
| 20260509161403 | 58 | 18 | 3.0 | 12.0 | 0.00 | 0.00 | 0.00 | 47 | 1023.4 |
| 20260509160904 | 58 | 23 | 4.0 | 10.0 | 0.00 | 0.00 | 0.00 | 46 | 1023.4 |
| 20260509155905 | 58 | 14 | 5.0 | 12.0 | 0.00 | 0.00 | 0.00 | 46 | 1023.4 |
| 20260509155404 | 58 | 12 | 5.0 | 15.0 | 0.00 | 0.00 | 0.00 | 46 | 1023.4 |
| 20260509154904 | 58 | 17 | 2.0 | 6.0 | 0.00 | 0.00 | 0.00 | 45 | 1023.4 |
| 20260509154404 | 58 | 24 | 2.0 | 8.0 | 0.00 | 0.00 | 0.00 | 44 | 1023.4 |
| 20260509153905 | 58 | 13 | 2.0 | 6.0 | 0.00 | 0.00 | 0.00 | 45 | 1023.4 |
| 20260509153405 | 58 | 12 | 3.0 | 9.0 | 0.00 | 0.00 | 0.00 | 42 | 1023.4 |
| 20260509152905 | 58 | 355 | 4.0 | 8.0 | 0.00 | 0.00 | 0.00 | 43 | 1023.3 |
| 20260509152404 | 58 | 26 | 3.0 | 7.0 | 0.00 | 0.00 | 0.00 | 44 | 1023.4 |
| 20260509151905 | 58 | 355 | 2.0 | 8.0 | 0.00 | 0.00 | 0.00 | 45 | 1023.4 |
| 20260509151404 | 57 | 15 | 5.0 | 12.0 | 0.00 | 0.00 | 0.00 | 43 | 1023.4 |
| 20260509150904 | 57 | 10 | 2.0 | 7.0 | 0.00 | 0.00 | 0.00 | 44 | 1023.4 |
| 20260509145404 | 57 | 20 | 3.0 | 9.0 | 0.00 | 0.00 | 0.00 | 47 | 1023.5 |
| 20260509144904 | 57 | 0 | 3.0 | 9.0 | 0.00 | 0.00 | 0.00 | 47 | 1023.5 |
| 20260509144404 | 57 | 354 | 3.0 | 9.0 | 0.00 | 0.00 | 0.00 | 45 | 1023.6 |
| 20260509143906 | 57 | 18 | 3.0 | 7.0 | 0.00 | 0.00 | 0.00 | 48 | 1023.5 |
| 20260509143406 | 57 | 23 | 3.0 | 8.0 | 0.00 | 0.00 | 0.00 | 46 | 1023.5 |
| 20260509142905 | 56 | 44 | 3.0 | 10.0 | 0.00 | 0.00 | 0.00 | 48 | 1023.5 |
| 20260509142405 | 56 | 8 | 5.0 | 9.0 | 0.00 | 0.00 | 0.00 | 49 | 1023.5 |
| 20260509141906 | 55 | 24 | 6.0 | 10.0 | 0.00 | 0.00 | 0.00 | 50 | 1023.6 |
| 20260509141406 | 55 | 25 | 2.0 | 7.0 | 0.00 | 0.00 | 0.00 | 50 | 1023.5 |
| 20260509140405 | 56 | 5 | 3.0 | 9.0 | 0.00 | 0.00 | 0.00 | 49 | 1023.6 |
| 20260509135905 | 56 | 347 | 5.0 | 9.0 | 0.00 | 0.00 | 0.00 | 46 | 1023.7 |
| 20260509135405 | 57 | 28 | 1.0 | 6.0 | 0.00 | 0.00 | 0.00 | 49 | 1023.6 |
| 20260509134906 | 57 | 34 | 2.0 | 5.0 | 0.00 | 0.00 | 0.00 | 47 | 1023.7 |
| 20260509134407 | 58 | 11 | 3.0 | 12.0 | 0.00 | 0.00 | 0.00 | 46 | 1023.8 |
| 20260509133905 | 58 | 353 | 5.0 | 10.0 | 0.00 | 0.00 | 0.00 | 46 | 1023.8 |
| 20260509133406 | 57 | 23 | 5.0 | 13.0 | 0.00 | 0.00 | 0.00 | 45 | 1023.8 |
| 20260509132906 | 57 | 348 | 5.0 | 12.0 | 0.00 | 0.00 | 0.00 | 45 | 1023.8 |
| 20260509131905 | 57 | 4 | 3.0 | 8.0 | 0.00 | 0.00 | 0.00 | 40 | 1023.7 |
| 20260509131406 | 57 | 355 | 2.0 | 8.0 | 0.00 | 0.00 | 0.00 | 42 | 1023.8 |
| 20260509130905 | 57 | 269 | 1.0 | 7.0 | 0.00 | 0.00 | 0.00 | 41 | 1023.8 |
| 20260509130405 | 58 | 5 | 1.0 | 3.0 | 0.00 | 0.00 | 0.00 | 42 | 1023.8 |
| 20260509125905 | 58 | 0 | 2.0 | 3.0 | 0.00 | 0.00 | 0.00 | 44 | 1023.8 |
| 20260509125405 | 58 | 342 | 3.0 | 8.0 | 0.00 | 0.00 | 0.00 | 42 | 1023.8 |
| 20260509124907 | 58 | 34 | 3.0 | 7.0 | 0.00 | 0.00 | 0.00 | 43 | 1023.9 |
| 20260509123406 | 57 | 353 | 5.0 | 10.0 | 0.00 | 0.00 | 0.00 | 46 | 1024.0 |
| 20260509122905 | 57 | 7 | 2.0 | 7.0 | 0.00 | 0.00 | 0.00 | 46 | 1024.0 |
| 20260509122406 | 56 | 331 | 3.0 | 7.0 | 0.00 | 0.00 | 0.00 | 46 | 1024.0 |
| 20260509121406 | 56 | 355 | 2.0 | 5.0 | 0.00 | 0.00 | 0.00 | 46 | 1024.1 |
| 20260509120405 | 55 | 344 | 5.0 | 10.0 | 0.00 | 0.00 | 0.00 | 49 | 1024.1 |
| 20260509115906 | 55 | 5 | 3.0 | 9.0 | 0.00 | 0.00 | 0.00 | 50 | 1024.1 |
| 20260509115406 | 55 | 18 | 6.0 | 12.0 | 0.00 | 0.00 | 0.00 | 48 | 1024.0 |
| 20260509114906 | 55 | 15 | 3.0 | 10.0 | 0.00 | 0.00 | 0.00 | 49 | 1024.1 |
| 20260509114406 | 55 | 33 | 4.0 | 8.0 | 0.00 | 0.00 | 0.00 | 50 | 1024.1 |
| 20260509113905 | 55 | 4 | 3.0 | 8.0 | 0.00 | 0.00 | 0.00 | 49 | 1024.2 |
| 20260509113406 | 54 | 13 | 1.0 | 10.0 | 0.00 | 0.00 | 0.00 | 49 | 1024.1 |
| 20260509112905 | 54 | 355 | 5.0 | 12.0 | 0.00 | 0.01 | 0.00 | 50 | 1024.3 |
| 20260509112405 | 53 | 271 | 3.0 | 8.0 | 0.00 | 0.01 | 0.00 | 53 | 1024.3 |
| 20260509111905 | 52 | 315 | 3.0 | 7.0 | 0.00 | 0.02 | 0.00 | 54 | 1024.3 |
| 20260509105905 | 54 | 347 | 5.0 | 12.0 | 0.00 | 0.02 | 0.00 | 51 | 1024.5 |
| 20260509105406 | 54 | 339 | 4.0 | 10.0 | 0.00 | 0.02 | 0.00 | 51 | 1024.4 |
| 20260509104907 | 54 | 16 | 1.0 | 7.0 | 0.00 | 0.03 | 0.00 | 50 | 1024.4 |
| 20260509103407 | 51 | 24 | 2.0 | 5.0 | 0.00 | 0.03 | 0.00 | 56 | 1024.5 |
| 20260509102905 | 51 | 24 | 1.0 | 5.0 | 0.00 | 0.03 | 0.00 | 53 | 1024.5 |
| 20260509101905 | 51 | 23 | 1.0 | 3.0 | 0.00 | 0.03 | 0.00 | 59 | 1024.5 |
| 20260509101406 | 50 | 23 | 0.0 | 3.0 | 0.00 | 0.03 | 0.00 | 58 | 1024.5 |
| 20260509100906 | 50 | 23 | 1.0 | 6.0 | 0.00 | 0.03 | 0.00 | 60 | 1024.5 |
| 20260509100405 | 49 | 17 | 2.0 | 6.0 | 0.00 | 0.03 | 0.00 | 61 | 1024.5 |
| 20260509095405 | 49 | 14 | 1.0 | 6.0 | 0.00 | 0.03 | 0.00 | 60 | 1024.4 |
| 20260509094405 | 49 | 14 | 0.0 | 6.0 | 0.00 | 0.03 | 0.00 | 62 | 1024.4 |
| 20260509093906 | 49 | 33 | 3.0 | 6.0 | 0.00 | 0.03 | 0.00 | 60 | 1024.4 |
| 20260509092905 | 49 | 39 | 3.0 | 8.0 | 0.00 | 0.03 | 0.00 | 62 | 1024.4 |
| 20260509092405 | 49 | 5 | 4.0 | 7.0 | 0.00 | 0.03 | 0.00 | 63 | 1024.4 |
| 20260509091405 | 49 | 32 | 4.0 | 8.0 | 0.00 | 0.03 | 0.00 | 64 | 1024.4 |
| 20260509090905 | 48 | 9 | 3.0 | 9.0 | 0.00 | 0.03 | 0.00 | 64 | 1024.4 |
| 20260509090405 | 48 | 5 | 4.0 | 8.0 | 0.00 | 0.03 | 0.00 | 65 | 1024.6 |
| 20260509085905 | 48 | 349 | 0.0 | 7.0 | 0.00 | 0.03 | 0.00 | 68 | 1024.5 |
| 20260509085405 | 48 | 31 | 3.0 | 8.0 | 0.00 | 0.03 | 0.00 | 67 | 1024.5 |
| 20260509084906 | 47 | 26 | 2.0 | 7.0 | 0.00 | 0.03 | 0.00 | 70 | 1024.4 |
| 20260509084406 | 47 | 359 | 3.0 | 8.0 | 0.00 | 0.03 | 0.00 | 70 | 1024.5 |
| 20260509083906 | 47 | 45 | 3.0 | 9.0 | 0.00 | 0.03 | 0.00 | 70 | 1024.5 |
| 20260509083406 | 46 | 358 | 4.0 | 9.0 | 0.00 | 0.03 | 0.00 | 72 | 1024.4 |
| 20260509082905 | 46 | 355 | 3.0 | 7.0 | 0.00 | 0.03 | 0.00 | 74 | 1024.3 |
| 20260509082405 | 46 | 1 | 3.0 | 8.0 | 0.00 | 0.03 | 0.00 | 73 | 1024.3 |
| 20260509081907 | 45 | 13 | 3.0 | 10.0 | 0.00 | 0.03 | 0.00 | 75 | 1024.3 |
| 20260509081406 | 45 | 25 | 3.0 | 8.0 | 0.00 | 0.03 | 0.00 | 76 | 1024.3 |
| 20260509080905 | 45 | 354 | 4.0 | 12.0 | 0.00 | 0.03 | 0.00 | 78 | 1024.2 |
| 20260509075904 | 44 | 341 | 5.0 | 9.0 | 0.00 | 0.03 | 0.00 | 82 | 1024.3 |
| 20260509075404 | 43 | 17 | 2.0 | 6.0 | 0.00 | 0.03 | 0.00 | 85 | 1024.3 |
| 20260509074905 | 43 | 40 | 3.0 | 7.0 | 0.00 | 0.03 | 0.00 | 86 | 1024.4 |
| 20260509074406 | 42 | 30 | 3.0 | 8.0 | 0.00 | 0.03 | 0.00 | 89 | 1024.4 |
| 20260509073905 | 42 | 203 | 2.0 | 6.0 | 0.00 | 0.03 | 0.00 | 91 | 1024.3 |
| 20260509073404 | 41 | 196 | 1.0 | 6.0 | 0.00 | 0.03 | 0.00 | 92 | 1024.3 |
| 20260509072905 | 40 | 196 | 1.0 | 3.0 | 0.00 | 0.03 | 0.00 | 94 | 1024.3 |
| 20260509071904 | 39 | 196 | 1.0 | 3.0 | 0.00 | 0.03 | 0.00 | 95 | 1024.4 |
| 20260509071405 | 39 | 196 | 1.0 | 3.0 | 0.00 | 0.03 | 0.00 | 95 | 1024.3 |
| 20260509070904 | 38 | 198 | 0.0 | 2.0 | 0.00 | 0.03 | 0.00 | 95 | 1024.3 |
| 20260509070405 | 38 | 198 | 0.0 | 3.0 | 0.00 | 0.03 | 0.00 | 95 | 1024.3 |
| 20260509065906 | 37 | 198 | 1.0 | 3.0 | 0.00 | 0.03 | 0.00 | 95 | 1024.3 |
| 20260509065405 | 37 | 198 | 0.0 | 2.0 | 0.00 | 0.03 | 0.00 | 95 | 1024.3 |
| 20260509064405 | 36 | 198 | 0.0 | 0.0 | 0.00 | 0.03 | 0.00 | 95 | 1024.4 |
| 20260509063905 | 35 | 198 | 0.0 | 0.0 | 0.00 | 0.03 | 0.00 | 95 | 1024.3 |
| 20260509063406 | 35 | 198 | 0.0 | 0.0 | 0.00 | 0.03 | 0.00 | 95 | 1024.4 |
| 20260509062905 | 34 | 198 | 0.0 | 0.0 | 0.00 | 0.03 | 0.00 | 95 | 1024.4 |
| 20260509062406 | 34 | 198 | 0.0 | 0.0 | 0.00 | 0.03 | 0.00 | 95 | 1024.4 |
| 20260509061906 | 33 | 198 | 0.0 | 0.0 | 0.00 | 0.04 | 0.00 | 94 | 1024.3 |
| 20260509061406 | 33 | 198 | 0.0 | 0.0 | 0.00 | 0.04 | 0.00 | 94 | 1024.3 |
| 20260509060905 | 33 | 198 | 0.0 | 0.0 | 0.00 | 0.04 | 0.00 | 94 | 1024.2 |
| 20260509060405 | 33 | 198 | 0.0 | 0.0 | 0.00 | 0.04 | 0.00 | 94 | 1024.2 |
| 20260509055904 | 32 | 198 | 0.0 | 0.0 | 0.00 | 0.04 | 0.00 | 94 | 1024.2 |
| 20260509055405 | 32 | 198 | 0.0 | 0.0 | 0.00 | 0.04 | 0.00 | 94 | 1024.1 |
| 20260509054905 | 32 | 198 | 0.0 | 0.0 | 0.00 | 0.04 | 0.00 | 94 | 1024.0 |
| 20260509053905 | 32 | 198 | 0.0 | 1.0 | 0.00 | 0.04 | 0.00 | 94 | 1023.9 |
| 20260509053404 | 32 | 236 | 0.0 | 0.0 | 0.00 | 0.04 | 0.00 | 94 | 1023.9 |
| 20260509052904 | 32 | 236 | 0.0 | 0.0 | 0.00 | 0.04 | 0.00 | 94 | 1023.9 |
| 20260509052405 | 32 | 236 | 0.0 | 0.0 | 0.00 | 0.04 | 0.00 | 93 | 1023.8 |
| 20260509051906 | 32 | 236 | 0.0 | 0.0 | 0.00 | 0.04 | 0.00 | 93 | 1023.8 |
| 20260509051405 | 31 | 236 | 0.0 | 0.0 | 0.00 | 0.04 | 0.00 | 93 | 1023.8 |
| 20260509050904 | 31 | 236 | 0.0 | 0.0 | 0.00 | 0.04 | 0.00 | 93 | 1023.7 |
| 20260509050406 | 31 | 236 | 0.0 | 0.0 | 0.00 | 0.04 | 0.00 | 93 | 1023.7 |
| 20260509045904 | 31 | 236 | 0.0 | 0.0 | 0.00 | 0.04 | 0.00 | 93 | 1023.6 |
| 20260509043904 | 31 | 236 | 0.0 | 0.0 | 0.00 | 0.04 | 0.00 | 92 | 1023.6 |
| 20260509043404 | 31 | 236 | 0.0 | 0.0 | 0.00 | 0.04 | 0.00 | 92 | 1023.6 |
| 20260509042906 | 31 | 236 | 0.0 | 0.0 | 0.00 | 0.04 | 0.00 | 92 | 1023.5 |
| 20260509042405 | 32 | 236 | 0.0 | 0.0 | 0.00 | 0.04 | 0.00 | 92 | 1023.4 |
| 20260509041405 | 32 | 236 | 0.0 | 0.0 | 0.00 | 0.04 | 0.00 | 92 | 1023.3 |
| 20260509040905 | 32 | 236 | 0.0 | 0.0 | 0.00 | 0.04 | 0.00 | 92 | 1023.3 |
| 20260509040404 | 32 | 236 | 0.0 | 0.0 | 0.00 | 0.04 | 0.00 | 92 | 1023.3 |
| 20260509035906 | 32 | 236 | 0.0 | 0.0 | 0.00 | 0.04 | 0.00 | 92 | 1023.3 |
| 20260509035405 | 32 | 236 | 0.0 | 0.0 | 0.00 | 0.04 | 0.00 | 92 | 1023.2 |
| 20260509034905 | 32 | 236 | 0.0 | 0.0 | 0.00 | 0.04 | 0.00 | 92 | 1023.3 |
| 20260509034404 | 32 | 236 | 0.0 | 0.0 | 0.00 | 0.04 | 0.00 | 92 | 1023.3 |
| 20260509033905 | 32 | 236 | 0.0 | 1.0 | 0.00 | 0.04 | 0.00 | 92 | 1023.3 |
| 20260509033405 | 32 | 123 | 0.0 | 0.0 | 0.00 | 0.04 | 0.00 | 92 | 1023.3 |
| 20260509032404 | 33 | 34 | 0.0 | 0.0 | 0.00 | 0.04 | 0.00 | 92 | 1023.0 |
| 20260509031905 | 33 | 34 | 0.0 | 0.0 | 0.00 | 0.04 | 0.00 | 91 | 1023.0 |
| 20260509031405 | 33 | 34 | 0.0 | 0.0 | 0.00 | 0.04 | 0.00 | 91 | 1022.9 |
| 20260509030905 | 33 | 34 | 0.0 | 0.0 | 0.00 | 0.04 | 0.00 | 91 | 1022.9 |
| 20260509030406 | 33 | 34 | 0.0 | 0.0 | 0.00 | 0.04 | 0.00 | 91 | 1022.9 |
| 20260509025905 | 33 | 34 | 0.0 | 0.0 | 0.00 | 0.04 | 0.00 | 91 | 1022.8 |
| 20260509024905 | 33 | 34 | 0.0 | 0.0 | 0.00 | 0.04 | 0.00 | 91 | 1022.9 |
| 20260509024405 | 33 | 34 | 0.0 | 0.0 | 0.00 | 0.04 | 0.00 | 91 | 1022.8 |
| 20260509023906 | 33 | 34 | 0.0 | 0.0 | 0.00 | 0.04 | 0.00 | 91 | 1022.7 |
| 20260509023404 | 34 | 34 | 0.0 | 0.0 | 0.00 | 0.04 | 0.00 | 90 | 1022.7 |
| 20260509022905 | 34 | 34 | 0.0 | 0.0 | 0.00 | 0.04 | 0.00 | 91 | 1022.7 |
| 20260509021405 | 34 | 34 | 0.0 | 0.0 | 0.00 | 0.04 | 0.00 | 91 | 1022.8 |
| 20260509020904 | 34 | 34 | 0.0 | 0.0 | 0.00 | 0.04 | 0.00 | 91 | 1022.9 |
| 20260509020406 | 34 | 34 | 0.0 | 0.0 | 0.00 | 0.04 | 0.00 | 91 | 1022.7 |
| 20260509015906 | 35 | 34 | 0.0 | 0.0 | 0.00 | 0.04 | 0.00 | 90 | 1022.8 |
| 20260509015405 | 35 | 34 | 0.0 | 0.0 | 0.00 | 0.04 | 0.00 | 90 | 1022.8 |
| 20260509014905 | 35 | 34 | 0.0 | 0.0 | 0.00 | 0.04 | 0.00 | 91 | 1022.8 |
| 20260509014405 | 35 | 34 | 0.0 | 0.0 | 0.00 | 0.04 | 0.00 | 91 | 1022.8 |
| 20260509013405 | 35 | 34 | 0.0 | 0.0 | 0.00 | 0.04 | 0.00 | 90 | 1022.7 |
| 20260509012405 | 35 | 34 | 0.0 | 0.0 | 0.00 | 0.04 | 0.00 | 90 | 1022.6 |
| 20260509011905 | 35 | 34 | 0.0 | 0.0 | 0.00 | 0.04 | 0.00 | 91 | 1022.6 |
| 20260509010905 | 36 | 34 | 0.0 | 0.0 | 0.00 | 0.04 | 0.00 | 90 | 1022.5 |
| 20260509010406 | 36 | 34 | 0.0 | 0.0 | 0.00 | 0.04 | 0.00 | 90 | 1022.4 |
| 20260509005905 | 36 | 34 | 0.0 | 0.0 | 0.00 | 0.04 | 0.00 | 90 | 1022.4 |
| 20260509005405 | 36 | 34 | 0.0 | 0.0 | 0.00 | 0.04 | 0.00 | 90 | 1022.4 |
| 20260509004905 | 36 | 34 | 0.0 | 0.0 | 0.00 | 0.04 | 0.00 | 90 | 1022.3 |
| 20260509004405 | 36 | 34 | 0.0 | 3.0 | 0.00 | 0.04 | 0.00 | 90 | 1022.2 |
| 20260509003905 | 36 | 34 | 0.0 | 0.0 | 0.00 | 0.04 | 0.00 | 90 | 1022.2 |
| 20260509003405 | 36 | 34 | 0.0 | 0.0 | 0.00 | 0.04 | 0.00 | 89 | 1022.2 |
| 20260509002906 | 37 | 34 | 0.0 | 0.0 | 0.00 | 0.04 | 0.00 | 89 | 1022.2 |
| 20260509002405 | 37 | 34 | 0.0 | 0.0 | 0.00 | 0.04 | 0.00 | 89 | 1022.2 |
| 20260509001905 | 37 | 34 | 0.0 | 0.0 | 0.00 | 0.04 | 0.00 | 88 | 1022.1 |
| 20260509001405 | 37 | 34 | 0.0 | 0.0 | 0.00 | 0.04 | 0.00 | 89 | 1022.1 |
| 20260509000905 | 37 | 34 | 0.0 | 0.0 | 0.00 | 0.04 | 0.00 | 89 | 1022.1 |
| 20260509000405 | 37 | 34 | 0.0 | 0.0 | 0.00 | 0.04 | 0.00 | 89 | 1022.0 |
| 20260508235905 | 37 | 34 | 0.0 | 0.0 | 0.00 | 0.04 | 0.00 | 88 | 1022.1 |
| 20260508235406 | 37 | 34 | 0.0 | 0.0 | 0.00 | 0.04 | 0.00 | 88 | 1022.0 |
| 20260508234906 | 38 | 34 | 0.0 | 0.0 | 0.00 | 0.04 | 0.00 | 88 | 1022.0 |
| 20260508233906 | 38 | 34 | 0.0 | 0.0 | 0.00 | 0.04 | 0.00 | 87 | 1021.9 |
| 20260508233406 | 38 | 34 | 0.0 | 0.0 | 0.00 | 0.04 | 0.00 | 87 | 1022.0 |
| 20260508232906 | 38 | 34 | 0.0 | 0.0 | 0.00 | 0.04 | 0.00 | 87 | 1022.0 |
| 20260508232406 | 38 | 34 | 0.0 | 0.0 | 0.00 | 0.04 | 0.00 | 86 | 1022.0 |
| 20260508231906 | 39 | 34 | 0.0 | 0.0 | 0.00 | 0.04 | 0.00 | 86 | 1022.0 |
| 20260508231404 | 39 | 34 | 0.0 | 0.0 | 0.00 | 0.04 | 0.00 | 86 | 1021.9 |
| 20260508230906 | 39 | 34 | 0.0 | 0.0 | 0.00 | 0.04 | 0.00 | 85 | 1021.8 |
| 20260508230406 | 40 | 34 | 0.0 | 0.0 | 0.00 | 0.04 | 0.00 | 86 | 1021.8 |
| 20260508225902 | 40 | 34 | 0.0 | 0.0 | 0.00 | 0.04 | 0.04 | 85 | 1021.7 |
| 20260508224903 | 40 | 34 | 0.0 | 0.0 | 0.00 | 0.05 | 0.04 | 85 | 1021.6 |
| 20260508223904 | 41 | 34 | 0.0 | 0.0 | 0.00 | 0.05 | 0.04 | 85 | 1021.7 |
| 20260508223402 | 41 | 34 | 0.0 | 0.0 | 0.00 | 0.05 | 0.04 | 85 | 1021.7 |
| 20260508222902 | 41 | 34 | 0.0 | 0.0 | 0.00 | 0.05 | 0.04 | 85 | 1021.7 |
| 20260508222403 | 41 | 34 | 0.0 | 0.0 | 0.00 | 0.05 | 0.04 | 84 | 1021.5 |
| 20260508221903 | 42 | 34 | 0.0 | 0.0 | 0.00 | 0.05 | 0.04 | 84 | 1021.4 |
| 20260508220902 | 42 | 34 | 0.0 | 0.0 | 0.00 | 0.05 | 0.04 | 84 | 1021.3 |
| 20260508220403 | 42 | 34 | 0.0 | 1.0 | 0.00 | 0.06 | 0.04 | 83 | 1021.2 |
| 20260508215902 | 42 | 34 | 1.0 | 3.0 | 0.00 | 0.06 | 0.04 | 83 | 1021.2 |
| 20260508215403 | 42 | 33 | 0.0 | 0.0 | 0.00 | 0.07 | 0.04 | 83 | 1021.2 |
| 20260508214903 | 43 | 33 | 0.0 | 2.0 | 0.00 | 0.08 | 0.04 | 83 | 1021.2 |
| 20260508214403 | 43 | 33 | 1.0 | 2.0 | 0.00 | 0.08 | 0.04 | 82 | 1021.1 |
| 20260508213904 | 43 | 33 | 0.0 | 0.0 | 0.00 | 0.08 | 0.04 | 82 | 1021.0 |
| 20260508213402 | 43 | 33 | 0.0 | 0.0 | 0.00 | 0.09 | 0.04 | 81 | 1021.0 |
| 20260508212902 | 44 | 33 | 0.0 | 0.0 | 0.00 | 0.09 | 0.04 | 81 | 1021.0 |
| 20260508212403 | 44 | 33 | 0.0 | 0.0 | 0.00 | 0.09 | 0.04 | 81 | 1020.9 |
| 20260508211902 | 44 | 33 | 0.0 | 0.0 | 0.00 | 0.09 | 0.04 | 81 | 1020.9 |
| 20260508211403 | 45 | 33 | 0.0 | 0.0 | 0.00 | 0.09 | 0.04 | 80 | 1020.9 |
| 20260508210902 | 45 | 33 | 0.0 | 0.0 | 0.00 | 0.09 | 0.04 | 80 | 1020.8 |
| 20260508210403 | 45 | 33 | 0.0 | 0.0 | 0.00 | 0.09 | 0.04 | 79 | 1020.8 |
| 20260508205903 | 45 | 33 | 0.0 | 0.0 | 0.00 | 0.09 | 0.04 | 79 | 1020.7 |
| 20260508205403 | 45 | 33 | 0.0 | 0.0 | 0.00 | 0.09 | 0.04 | 78 | 1020.8 |
| 20260508204903 | 46 | 33 | 0.0 | 0.0 | 0.00 | 0.09 | 0.04 | 78 | 1020.7 |
| 20260508204403 | 46 | 33 | 0.0 | 0.0 | 0.00 | 0.09 | 0.04 | 77 | 1020.6 |
| 20260508203903 | 46 | 33 | 0.0 | 0.0 | 0.00 | 0.09 | 0.04 | 76 | 1020.5 |
| 20260508203402 | 47 | 33 | 0.0 | 0.0 | 0.00 | 0.09 | 0.04 | 75 | 1020.4 |
| 20260508202902 | 47 | 33 | 0.0 | 0.0 | 0.00 | 0.09 | 0.04 | 74 | 1020.3 |
| 20260508202403 | 48 | 33 | 0.0 | 0.0 | 0.00 | 0.09 | 0.04 | 73 | 1020.2 |
| 20260508201903 | 48 | 33 | 0.0 | 1.0 | 0.00 | 0.09 | 0.04 | 72 | 1020.2 |
| 20260508200902 | 49 | 33 | 0.0 | 0.0 | 0.00 | 0.09 | 0.04 | 70 | 1020.0 |
| 20260508200404 | 50 | 33 | 0.0 | 0.0 | 0.00 | 0.09 | 0.04 | 69 | 1019.9 |
| 20260508195402 | 50 | 33 | 0.0 | 0.0 | 0.00 | 0.09 | 0.04 | 66 | 1019.9 |
| 20260508194904 | 51 | 33 | 0.0 | 0.0 | 0.00 | 0.09 | 0.04 | 65 | 1019.8 |
| 20260508194404 | 51 | 33 | 0.0 | 1.0 | 0.00 | 0.09 | 0.04 | 64 | 1019.7 |
| 20260508193903 | 52 | 33 | 0.0 | 0.0 | 0.00 | 0.09 | 0.04 | 63 | 1019.6 |
| 20260508193402 | 52 | 33 | 0.0 | 1.0 | 0.00 | 0.09 | 0.04 | 61 | 1019.5 |
| 20260508192902 | 52 | 33 | 0.0 | 3.0 | 0.00 | 0.09 | 0.04 | 60 | 1019.4 |
| 20260508192402 | 53 | 34 | 0.0 | 3.0 | 0.00 | 0.09 | 0.04 | 59 | 1019.4 |